AirNav   ProFlight Series 2 Aviation Headset
 
 260 users online  

14KY Blue Haven Farm Airport
Paris, Kentucky, USA

GOING TO PARIS?


FAA INFORMATION EFFECTIVE 18 JUNE 2020

Location

FAA Identifier: 14KY
Lat/Long: 38-10-25.2740N 084-22-05.7660W
38-10.421233N 084-22.096100W
38.1736872,-84.3682683
(estimated)
Elevation: 985 ft. / 300 m (estimated)
Variation: 03W (1985)
From city: 6 miles SW of PARIS, KY
Time zone: UTC -4 (UTC -5 during Standard Time)
Zip code: 40511

Airport Operations

Airport use: Private use. Permission required prior to landing
Activation date: 12/1970
Control tower: no
ARTCC: INDIANAPOLIS CENTER
FSS: LOUISVILLE FLIGHT SERVICE STATION
Attendance: CONTINUOUS
Wind indicator: no
Segmented circle: no
Landing fee: yes

Airport Communications

WX AWOS-3 at 27K (5 nm NW): 119.975 (502-867-1564)
WX ASOS at LEX (14 nm SW): PHONE 859-281-5700
WX AWOS-3 at IOB (20 nm E): 120.675 (859-498-7001)

Nearby radio navigation aids

VOR radial/distance  VOR name  Freq  Var
HYKr022/13.4LEXINGTON VOR/DME112.6000E
FFTr094/(25.5)FRANKFORT VOR109.4003W
FLMr189/28.7FALMOUTH VOR/DME117.0004W

 
NDB name  Hdg/Dist  Freq  Var  ID
BRIDL070/7.234004WGN --. -.
MOUNT STERLING297/19.521006WIOB .. --- -...
SECO330/29.639303WXYC -..- -.-- -.-.

Airport Services

Airframe service: NONE
Powerplant service: NONE

Runway Information

Runway 13/31

Dimensions: 2240 x 75 ft. / 683 x 23 m
Surface: turf
RUNWAY 13  RUNWAY 31
Traffic pattern: leftleft
Obstructions: grain bin
110' RDO TWR NORTH, UNLGTD & UNMRKD.
fence

Airport Ownership and Management from official FAA records

Ownership: Privately-owned
Owner: ROBERT HERREN
1850 FERGUSON ROAD
LEXINGTON, KY 40511
Phone 606-299-5160
Manager: ROBERT HERREN
1850 FERGUSON ROAD
LEXINGTON, KY 40511
Phone 606-299-5160

Airport Operational Statistics

Aircraft based on the field: 2
Single engine airplanes: 1
Gliders airplanes: 1
    

Additional Remarks

FOR CD CTC LEXINGTON APCH AT 859-514-7890.

Instrument Procedures

There are no published instrument procedures at 14KY.

Some nearby airports with instrument procedures:

27K - Georgetown-Scott County Regional Airport (5 nm NW)
0I8 - Cynthiana-Harrison County Airport (12 nm N)
KLEX - Blue Grass Airport (14 nm SW)
KIOB - Mount Sterling-Montgomery County Airport (20 nm E)
KFFT - Capital City Airport (25 nm W)
 
Loc | Ops | Rwys | IFR | FBO | Links
Com | Nav | Svcs | Stats | Notes
Area around 14KY (Blue Haven Farm Airport)
 
Road maps at: MapQuest Bing Google
 
Aerial photo
No photo
 
Sectional chart

 
Airport distance calculator
Flying to Blue Haven Farm Airport? Find the distance to fly.

From to 14KY

Sunrise and sunset
Times for 14-Jul-2020
 Local
(UTC-4)
 Zulu
(UTC)
Morning civil twilight05:5709:57
Sunrise06:2710:27
Sunset20:5900:59
Evening civil twilight21:3001:30

Current date and time
Zulu (UTC)  14-Jul-2020 08:59:22
Local (UTC-4)  14-Jul-2020 04:59:22
 
METAR
K27K 
5nm NW 
140855Z AUTO 00000KT 5SM CLR 15/15 A3000 RMK AO1
KLEX 
14nm SW 
140854Z 00000KT 10SM CLR 16/15 A3000 RMK AO2 SLP150 T01610150 56005
KIOB 
20nm E 
140835Z AUTO 00000KT 10SM CLR 16/16 A3001 RMK AO2 PWINO
TAF
KLEX 
14nm SW 
140520Z 1406/1506 VRB03KT P6SM SKC TEMPO 1409/1413 3SM BR FM141500 VRB04KT P6SM SCT050
NOTAMs
Click for the latest NOTAMs
NOTAMs are issued by the DoD/FAA and will open in a separate window not controlled by AirNav.

 

 
 

Would you like to see your business listed on this page?

 If your business provides an interesting product or service to pilots, flight crews, aircraft, or users of the Blue Haven Farm Airport, you should consider listing it here.  To start the listing process, click on the button below
 
Add a business
 

Other Pages about Blue Haven Farm Airport

Update a link
 
Copyright © AirNav, LLC. All rights reserved. Privacy Policy  Contact